Galt, MO

10:49 PM CDT on July 24, 2014 (GMT -0500)
Lamoni Municipal (KLWD) Elev 1132 ft | 40.63 °N, 93.90 °W | Change Station

Current weather conditions updated 56 minutes ago

Clear
Clear
69 °F
Feels Like 69 °F
N
10
Wind Variable Wind from South

Tomorrow is forecast to be Much Warmer than today.

Today
High -- | Low -- °F
--% Chance of Precip.
Yesterday
High -- | Low -- °F
Precip. -- in
6:04 AM 8:35 PM
Waning Crescent, 3% visible
Pressure 29.97 in
Visibility 10.0 miles
Clouds Clear
Dew Point 61 °F
Humidity 75%
Rainfall 0.00 in
Snow Depth Not available.
UV 0 out of 12
Pollen 5.10 out of 12
Air Quality Not available.
Flu Activity Not available.
METAR KLWD 250253Z AUTO 17009KT 10SM CLR 21/16 A2998 RMK AO2 SLP147 T02060161 58023

More Conditions Fewer Conditions

Pressure 29.97 in
Visibility 10.0 miles
Clouds Clear
Dew Point 61 °F
Humidity 75%
Rainfall 0.00 in
Snow Depth Not available.
UV 0 out of 12
Pollen 5.10 out of 12
Air Quality Not available.
Flu Activity Not available.
METAR KLWD 250253Z AUTO 17009KT 10SM CLR 21/16 A2998 RMK AO2 SLP147 T02060161 58023

More Conditions Fewer Conditions

10-Day Weather Forecast

Almanac

Astronomy

Jul. 24, 2014 Rise Set
Actual Time 6:04 AM CDT 8:35 PM CDT
Civil Twilight 5:33 AM CDT 9:06 PM CDT
Nautical Twilight 4:54 AM CDT 9:45 PM CDT
Astronomical Twilight 4:11 AM CDT 10:28 PM CDT
Moon 4:12 AM CDT (7/24) 6:50 PM CDT (7/24)
Length of Visible Light 15h 33m
Length of Day
14h 30m
Tomorrow will be 1m 46s shorter.
Waning Crescent, 3% of the Moon is Illuminated
Today
Waning Crescent
Jul 26
New
Aug 3
First Quarter
Aug 10
Full
Aug 17
Last Quarter

Today's Extremes

State Highs State Lows

Community

WunderPhotos

Upload Photos

1,737,231 photos uploaded!

Nearby

Snow Depth

Station Depth Elevation
No new snow has been reported.

Earthquake Activity

City Distance Mag. Time & Date
No recent earthquake activity has been reported nearby.
Minimum magnitude displayed is 2.5.

Coastal Water Temperatures

Place Temperature
No Stations Reporting

Nearby Weather Stations

Station Location Temp. Heat Index Dew Point Humidity Wind Precip. Elev Updated Type
trenton mo, Trenton, MO 68.3 °F - 61 °F 78% South  at  9.2 mph 0.00 in / hr 850 ft 10:49 PM CDT Rapid Fire
Big Rock, Trenton, MO 67.3 °F - 61 °F 81% South  at  3.7 mph - / hr 814 ft 10:46 PM CDT Normal
North Central Missouri, Browning, MO 69.0 °F - 62 °F 77% SSW  at  5.0 mph 0.00 in / hr 810 ft 10:49 PM CDT Rapid Fire
Milan, MO 66.9 °F - 58 °F 74% SSE  at  4.0 mph 0.00 in / hr 910 ft 10:49 PM CDT Rapid Fire
MesoWest SPICKARD , Gilman City, MO 69 °F - 60 °F 73% ESE  at  4 mph 0.00 in / hr 911 ft 9:00 PM CDT MADIS
MesoWest COBURN , Jamesport, MO 74 °F 72 °F - - North  at  - 0.00 in / hr 901 ft 7:15 PM CDT MADIS
Unionville MO, Unionville, MO 67.6 °F - 61 °F 80% South  at  6.9 mph 0.00 in / hr 1053 ft 10:49 PM CDT Rapid Fire

Show More Stations Show Fewer Stations